Time;durP1;ratioP1;P1;durP2;ratioP2;P2;SDS_P1;SDS_P2;PMS_P1;PMS_P2;Temp;Humidity;BMP_temperature;BMP_pressure;BME280_temperature;BME280_humidity;BME280_pressure;Samples;Min_cycle;Max_cycle;Signal;HPM_P1;HPM_P2
2023/01/10 00:00:22;;;;;;;22.37;3.37;;;5.60;99.90;;;;;;5061681;28;20052;-51
2023/01/10 00:02:49;;;;;;;18.73;2.97;;;5.60;99.90;;;;;;5043971;28;20322;-52
2023/01/10 00:05:16;;;;;;;20.80;3.38;;;5.60;99.90;;;;;;5061119;28;20135;-49
2023/01/10 00:07:43;;;;;;;27.70;3.70;;;5.60;99.90;;;;;;5042640;28;20131;-50
2023/01/10 00:10:11;;;;;;;21.98;3.38;;;5.60;99.90;;;;;;5062140;28;20593;-52
2023/01/10 00:15:38;;;;;;;29.45;3.63;;;5.50;99.90;;;;;;4997857;28;20508;-47
2023/01/10 00:18:05;;;;;;;17.90;2.67;;;5.40;99.90;;;;;;5000922;28;20124;-50
2023/01/10 00:20:31;;;;;;;17.98;3.08;;;5.40;99.90;;;;;;5026449;28;20585;-53
2023/01/10 00:22:59;;;;;;;16.40;2.97;;;5.40;99.90;;;;;;5063044;28;20850;-49
2023/01/10 00:25:26;;;;;;;21.98;3.38;;;5.30;99.90;;;;;;5046001;28;20057;-48
2023/01/10 00:28:00;;;;;;;20.10;3.50;;;5.20;99.90;;;;;;5046630;28;20083;-51
2023/01/10 00:30:27;;;;;;;20.08;3.10;;;5.30;99.90;;;;;;5066739;28;20059;-46
2023/01/10 00:32:55;;;;;;;24.77;3.63;;;5.20;99.90;;;;;;5066710;28;20052;-52
2023/01/10 00:35:22;;;;;;;28.83;4.20;;;5.30;99.90;;;;;;5065778;28;20583;-50
2023/01/10 00:37:50;;;;;;;20.00;3.67;;;5.30;99.90;;;;;;5066169;28;20110;-46
2023/01/10 00:40:17;;;;;;;27.20;3.38;;;5.20;99.90;;;;;;5051082;28;20143;-44
2023/01/10 00:45:31;;;;;;;21.70;3.20;;;5.30;99.90;;;;;;5030498;28;20060;-54
2023/01/10 00:47:59;;;;;;;30.10;3.80;;;5.30;99.90;;;;;;5065045;28;20577;-55
2023/01/10 00:50:26;;;;;;;27.52;3.67;;;5.40;99.90;;;;;;5047604;28;20052;-55
2023/01/10 00:52:52;;;;;;;27.75;3.75;;;5.40;99.90;;;;;;5065657;28;20499;-54
2023/01/10 00:55:19;;;;;;;34.03;4.68;;;5.40;99.90;;;;;;5064010;28;20098;-50
2023/01/10 00:57:46;;;;;;;30.67;5.10;;;5.40;99.90;;;;;;5065028;28;20079;-53
2023/01/10 01:00:13;;;;;;;29.75;3.65;;;5.50;99.90;;;;;;5066950;28;20044;-51
2023/01/10 01:02:40;;;;;;;27.58;3.35;;;5.50;99.90;;;;;;5065320;28;20114;-50
2023/01/10 01:05:09;;;;;;;34.88;3.67;;;5.60;99.90;;;;;;5063198;28;20123;-49
2023/01/10 01:07:36;;;;;;;29.52;3.70;;;5.50;99.90;;;;;;5066229;28;20115;-53
2023/01/10 01:12:59;;;;;;;27.30;3.97;;;5.50;99.90;;;;;;5005709;28;20092;-51
2023/01/10 01:15:26;;;;;;;24.33;3.92;;;5.50;99.90;;;;;;5032360;28;20060;-55
2023/01/10 01:17:53;;;;;;;24.30;3.95;;;5.50;99.90;;;;;;5065773;28;20450;-54
2023/01/10 01:20:21;;;;;;;30.63;3.92;;;5.60;99.90;;;;;;5067679;28;20052;-54
2023/01/10 01:22:48;;;;;;;29.50;3.75;;;5.60;99.90;;;;;;5064812;28;20382;-55
2023/01/10 01:25:15;;;;;;;27.00;4.15;;;5.50;99.90;;;;;;5064990;28;20068;-51
2023/01/10 01:27:41;;;;;;;27.60;3.85;;;5.60;99.90;;;;;;5062936;28;20459;-56
2023/01/10 01:30:10;;;;;;;24.75;3.70;;;5.70;99.90;;;;;;5061872;28;20131;-51
2023/01/10 01:32:37;;;;;;;25.38;3.63;;;5.70;99.90;;;;;;5045167;28;20084;-54
2023/01/10 01:35:04;;;;;;;18.77;3.40;;;5.80;99.90;;;;;;5044755;28;20076;-50
2023/01/10 01:37:32;;;;;;;27.20;3.30;;;5.70;99.90;;;;;;5042838;28;20378;-55
2023/01/10 01:39:59;;;;;;;25.35;3.47;;;5.70;99.90;;;;;;5043492;28;20273;-51
2023/01/10 01:42:27;;;;;;;27.48;4.75;;;5.70;99.90;;;;;;5041452;28;20130;-56
2023/01/10 01:45:30;;;;;;;21.00;3.42;;;5.70;99.90;;;;;;5044316;28;20140;-50
2023/01/10 01:47:58;;;;;;;18.52;3.22;;;5.70;99.90;;;;;;5044556;28;20131;-54
2023/01/10 01:50:26;;;;;;;21.95;3.60;;;5.60;99.90;;;;;;5041469;28;20436;-51
2023/01/10 01:52:56;;;;;;;27.98;4.32;;;5.60;99.90;;;;;;5044522;28;20110;-51
2023/01/10 01:55:23;;;;;;;21.77;3.95;;;5.60;99.90;;;;;;5044683;28;20056;-54
2023/01/10 01:57:50;;;;;;;31.73;4.43;;;5.60;99.90;;;;;;5044633;28;20578;-53
2023/01/10 02:00:17;;;;;;;30.48;4.32;;;5.60;99.90;;;;;;5045748;28;20049;-52
2023/01/10 02:02:45;;;;;;;23.67;4.03;;;5.50;99.90;;;;;;5046115;28;20099;-55
2023/01/10 02:05:13;;;;;;;27.65;4.15;;;5.50;99.90;;;;;;5041430;28;21194;-56
2023/01/10 02:07:41;;;;;;;20.60;3.58;;;5.60;99.90;;;;;;5043295;28;20561;-55
2023/01/10 02:10:12;;;;;;;35.33;4.38;;;5.50;99.90;;;;;;5042847;28;20128;-51
2023/01/10 02:12:39;;;;;;;28.40;3.60;;;5.50;99.90;;;;;;5042441;28;20347;-53
2023/01/10 02:15:07;;;;;;;28.80;4.60;;;5.50;99.90;;;;;;5042896;28;20386;-56
2023/01/10 02:17:33;;;;;;;28.77;4.43;;;5.50;99.90;;;;;;5042778;28;20106;-55
2023/01/10 02:20:02;;;;;;;20.92;3.38;;;5.50;99.90;;;;;;5041917;28;20122;-51
2023/01/10 02:22:54;;;;;;;26.73;4.00;;;5.40;99.90;;;;;;5043814;28;20044;-49
2023/01/10 02:25:32;;;;;;;31.90;4.25;;;5.40;99.90;;;;;;5035209;28;20489;-55
2023/01/10 02:28:12;;;;;;;35.33;3.60;;;5.40;99.90;;;;;;5038624;28;20556;-48
2023/01/10 02:31:19;;;;;;;16.42;3.10;;;5.40;99.90;;;;;;5044303;28;20140;-44
2023/01/10 02:33:48;;;;;;;27.05;3.65;;;5.30;99.90;;;;;;5019344;28;20148;-53
2023/01/10 02:36:24;;;;;;;22.75;3.45;;;5.30;99.90;;;;;;5055532;28;20136;-49
2023/01/10 02:38:56;;;;;;;26.98;3.55;;;5.20;99.90;;;;;;5064081;28;20496;-56
2023/01/10 02:41:30;;;;;;;25.33;3.80;;;5.30;99.90;;;;;;5063373;28;20041;-53
2023/01/10 02:43:59;;;;;;;21.02;3.33;;;5.30;99.90;;;;;;5043008;28;20141;-46
2023/01/10 02:46:28;;;;;;;23.55;3.80;;;5.20;99.90;;;;;;5062018;28;20080;-52
2023/01/10 02:48:56;;;;;;;20.10;3.88;;;5.20;99.90;;;;;;5045174;28;20049;-51
2023/01/10 02:51:23;;;;;;;27.33;3.47;;;5.20;99.90;;;;;;5062286;28;20087;-41
2023/01/10 02:53:52;;;;;;;24.23;3.47;;;5.20;99.90;;;;;;5064618;28;20188;-56
2023/01/10 02:57:10;;;;;;;21.02;3.38;;;5.20;99.90;;;;;;5046585;28;20120;-56
2023/01/10 03:00:08;;;;;;;21.73;3.33;;;5.20;99.90;;;;;;5063602;28;20139;-52
2023/01/10 03:02:49;;;;;;;30.60;3.65;;;5.20;99.90;;;;;;5059425;28;20044;-55
2023/01/10 03:05:22;;;;;;;27.17;4.45;;;5.20;99.90;;;;;;5045945;28;20145;-52
2023/01/10 03:07:53;;;;;;;37.80;4.60;;;5.20;99.90;;;;;;5061916;28;20614;-51
2023/01/10 03:10:23;;;;;;;29.48;4.43;;;5.20;99.90;;;;;;5063910;28;20543;-56
2023/01/10 03:12:55;;;;;;;28.40;4.32;;;5.30;99.90;;;;;;5062581;28;20679;-54
2023/01/10 03:15:23;;;;;;;18.52;3.50;;;5.30;99.90;;;;;;5063495;28;20436;-55
2023/01/10 03:17:53;;;;;;;21.05;4.10;;;5.40;99.90;;;;;;5062666;28;20056;-53
2023/01/10 03:20:21;;;;;;;24.63;3.90;;;5.40;99.90;;;;;;5042911;28;20155;-47
2023/01/10 03:22:48;;;;;;;24.73;4.03;;;5.40;99.90;;;;;;5060765;28;20072;-56
2023/01/10 03:25:16;;;;;;;21.42;4.00;;;5.50;99.90;;;;;;5061798;28;20048;-53
2023/01/10 03:27:47;;;;;;;31.67;3.85;;;5.50;99.90;;;;;;5046335;28;20049;-52
2023/01/10 03:30:17;;;;;;;27.58;4.35;;;5.50;99.90;;;;;;5062058;28;20849;-51
2023/01/10 03:32:44;;;;;;;46.97;6.65;;;5.50;99.90;;;;;;5061476;28;20084;-56
2023/01/10 03:35:11;;;;;;;32.97;4.63;;;5.50;99.90;;;;;;5060512;28;20041;-55
2023/01/10 03:37:43;;;;;;;31.25;4.50;;;5.50;99.90;;;;;;5062928;28;20194;-53
2023/01/10 03:40:15;;;;;;;30.10;4.07;;;5.50;99.90;;;;;;5044596;28;20564;-49
2023/01/10 03:45:33;;;;;;;30.70;4.10;;;5.50;99.90;;;;;;5062775;28;20087;-51
2023/01/10 03:48:01;;;;;;;28.88;3.88;;;5.40;99.90;;;;;;5044738;28;20185;-56
2023/01/10 03:50:28;;;;;;;22.42;4.00;;;5.40;99.90;;;;;;5063875;28;20473;-51
2023/01/10 03:52:56;;;;;;;28.38;3.65;;;5.50;99.90;;;;;;5042701;28;20127;-51
2023/01/10 03:55:24;;;;;;;33.47;4.50;;;5.50;99.90;;;;;;5061340;28;20174;-53
2023/01/10 03:57:50;;;;;;;27.05;4.72;;;5.50;99.90;;;;;;5062963;28;20484;-53
2023/01/10 04:00:18;;;;;;;23.67;4.70;;;5.50;99.90;;;;;;5062712;28;20098;-46
2023/01/10 04:02:45;;;;;;;23.17;4.35;;;5.50;99.90;;;;;;5060533;28;20131;-57
2023/01/10 04:05:12;;;;;;;19.48;3.40;;;5.50;99.90;;;;;;5061937;28;20044;-43
2023/01/10 04:07:39;;;;;;;26.77;4.70;;;5.60;99.90;;;;;;5045794;28;20572;-55
2023/01/10 04:10:08;;;;;;;22.80;3.92;;;5.60;99.90;;;;;;5044801;28;20865;-48
2023/01/10 04:12:35;;;;;;;17.48;2.85;;;5.60;99.90;;;;;;5043106;28;20056;-48
2023/01/10 04:15:02;;;;;;;27.00;3.72;;;5.70;99.90;;;;;;5043889;28;20063;-49
2023/01/10 04:17:29;;;;;;;30.77;4.72;;;5.70;99.90;;;;;;5062160;28;20098;-52
2023/01/10 04:19:55;;;;;;;35.65;4.45;;;5.70;99.90;;;;;;5062059;28;20162;-51
2023/01/10 04:22:22;;;;;;;31.38;4.50;;;5.80;99.90;;;;;;5062468;28;20144;-55
2023/01/10 04:24:50;;;;;;;26.77;4.35;;;5.80;99.90;;;;;;5061430;28;20451;-56
2023/01/10 04:27:19;;;;;;;34.97;4.88;;;5.80;99.90;;;;;;5061860;28;20481;-55
2023/01/10 04:29:45;;;;;;;31.55;4.57;;;5.80;99.90;;;;;;5061744;28;20067;-55
2023/01/10 04:32:12;;;;;;;28.90;4.85;;;5.80;99.90;;;;;;5061456;28;20139;-52
2023/01/10 04:34:39;;;;;;;28.25;4.65;;;5.80;99.90;;;;;;5061967;28;20224;-50
2023/01/10 04:37:06;;;;;;;30.20;3.88;;;5.90;99.90;;;;;;5042887;28;20122;-49
2023/01/10 04:39:33;;;;;;;36.30;5.05;;;5.90;99.90;;;;;;5057477;28;20084;-54
2023/01/10 04:41:59;;;;;;;31.67;5.10;;;5.90;99.90;;;;;;5042153;28;20528;-50
2023/01/10 04:44:28;;;;;;;30.65;4.65;;;5.90;99.90;;;;;;5041016;28;20113;-52
2023/01/10 04:46:55;;;;;;;39.80;4.78;;;6.00;99.90;;;;;;5061235;28;20057;-49
2023/01/10 04:49:21;;;;;;;39.25;5.13;;;5.90;99.90;;;;;;5061695;28;20076;-48
2023/01/10 04:51:48;;;;;;;33.03;5.18;;;6.00;99.90;;;;;;5060953;28;20060;-52
2023/01/10 04:54:15;;;;;;;27.80;4.80;;;6.00;99.90;;;;;;5059770;28;20127;-50
2023/01/10 04:56:42;;;;;;;31.75;4.93;;;6.00;99.90;;;;;;5043399;28;20055;-51
2023/01/10 04:59:09;;;;;;;33.85;5.47;;;6.00;99.90;;;;;;5042896;28;20130;-54
2023/01/10 05:01:38;;;;;;;26.73;3.95;;;6.00;99.90;;;;;;5060002;28;20091;-55
2023/01/10 05:04:05;;;;;;;27.45;4.22;;;6.00;99.90;;;;;;5044762;28;20041;-56
2023/01/10 05:06:32;;;;;;;28.85;4.70;;;6.00;99.90;;;;;;5061517;28;20075;-50
2023/01/10 05:08:59;;;;;;;35.88;5.00;;;6.00;99.90;;;;;;5061046;28;20464;-54
2023/01/10 05:11:26;;;;;;;34.67;4.93;;;6.00;99.90;;;;;;5063245;28;20412;-50
2023/01/10 05:13:52;;;;;;;25.48;4.65;;;6.00;99.90;;;;;;5061251;28;20138;-50
2023/01/10 05:16:19;;;;;;;36.92;4.70;;;6.00;99.90;;;;;;5064913;28;20573;-49
2023/01/10 05:18:47;;;;;;;32.25;4.40;;;5.90;99.90;;;;;;5065162;28;20188;-52
2023/01/10 05:21:14;;;;;;;32.25;4.47;;;5.90;99.90;;;;;;5048064;28;20052;-52
2023/01/10 05:23:41;;;;;;;39.63;5.35;;;5.90;99.90;;;;;;5046600;28;20139;-47
2023/01/10 05:26:09;;;;;;;33.70;4.70;;;5.90;99.90;;;;;;5063792;28;20111;-54
2023/01/10 05:28:36;;;;;;;36.28;4.93;;;5.90;99.90;;;;;;5047558;28;20106;-53
2023/01/10 05:31:03;;;;;;;34.95;5.07;;;5.90;99.90;;;;;;5064707;28;20466;-51
2023/01/10 05:33:30;;;;;;;33.05;4.88;;;5.90;99.90;;;;;;5047859;28;20051;-53
2023/01/10 05:36:00;;;;;;;30.95;4.82;;;5.90;99.90;;;;;;5047733;28;20048;-54
2023/01/10 05:38:28;;;;;;;40.60;5.32;;;5.90;99.90;;;;;;5048124;28;20053;-52
2023/01/10 05:40:55;;;;;;;33.53;5.10;;;5.90;99.90;;;;;;5048654;28;20091;-54
2023/01/10 05:43:22;;;;;;;40.95;4.90;;;5.90;99.90;;;;;;5063959;28;20041;-53
2023/01/10 05:45:49;;;;;;;34.83;4.82;;;5.90;99.90;;;;;;5066193;28;20121;-56
2023/01/10 05:48:16;;;;;;;33.58;5.53;;;5.90;99.90;;;;;;5046733;28;20507;-56
2023/01/10 05:50:43;;;;;;;38.38;4.80;;;5.90;99.90;;;;;;5065307;28;20055;-53
2023/01/10 05:53:11;;;;;;;26.02;4.50;;;5.90;99.90;;;;;;5063777;28;20068;-52
2023/01/10 05:55:38;;;;;;;31.33;5.20;;;5.90;99.90;;;;;;5046869;28;20147;-49
2023/01/10 05:58:04;;;;;;;33.78;4.70;;;5.90;99.90;;;;;;5063728;28;20053;-47
2023/01/10 06:00:31;;;;;;;36.67;5.75;;;5.90;99.90;;;;;;5062814;28;20080;-53
2023/01/10 06:02:58;;;;;;;32.90;5.38;;;6.00;99.90;;;;;;5063757;28;20098;-53
2023/01/10 06:05:25;;;;;;;40.15;5.35;;;5.90;99.90;;;;;;5062717;28;20044;-44
2023/01/10 06:07:52;;;;;;;33.88;5.15;;;5.90;99.90;;;;;;5061684;28;20060;-55
2023/01/10 06:10:20;;;;;;;42.88;5.43;;;5.90;99.90;;;;;;5045641;28;20096;-55
2023/01/10 06:12:48;;;;;;;36.88;4.80;;;5.90;99.90;;;;;;5045546;28;20478;-48
2023/01/10 06:15:15;;;;;;;32.45;4.85;;;5.90;99.90;;;;;;5047451;28;20053;-52
2023/01/10 06:17:43;;;;;;;45.15;5.75;;;6.00;99.90;;;;;;5062042;28;20133;-51
2023/01/10 06:20:11;;;;;;;35.97;5.30;;;6.00;99.90;;;;;;5046108;28;20452;-56
2023/01/10 06:22:40;;;;;;;29.98;5.35;;;6.00;99.90;;;;;;5046761;28;20110;-57
2023/01/10 06:25:07;;;;;;;42.40;6.32;;;6.00;99.90;;;;;;5061305;28;20068;-50
2023/01/10 06:27:36;;;;;;;24.35;5.60;;;6.00;99.90;;;;;;5046076;28;20115;-52
2023/01/10 06:30:02;;;;;;;33.92;6.65;;;6.00;99.90;;;;;;5045002;28;20676;-49
2023/01/10 06:32:29;;;;;;;42.67;6.20;;;6.00;99.90;;;;;;5062863;28;20530;-50
2023/01/10 06:34:56;;;;;;;50.90;6.60;;;6.10;99.90;;;;;;5062296;28;20124;-53
2023/01/10 06:37:23;;;;;;;35.72;5.82;;;6.00;99.90;;;;;;5046551;28;20064;-50
2023/01/10 06:39:50;;;;;;;47.63;6.93;;;6.00;99.90;;;;;;5062994;28;20072;-55
2023/01/10 06:42:16;;;;;;;38.85;5.65;;;6.00;99.90;;;;;;5059642;28;21396;-51
2023/01/10 06:44:45;;;;;;;36.90;6.00;;;6.00;99.90;;;;;;5061604;28;20127;-46
2023/01/10 06:47:11;;;;;;;38.92;6.03;;;5.90;99.90;;;;;;5044928;28;20048;-51
2023/01/10 06:49:38;;;;;;;32.67;5.38;;;5.90;99.90;;;;;;5061307;28;20056;-47
2023/01/10 06:52:05;;;;;;;34.72;5.72;;;5.90;99.90;;;;;;5045313;28;20053;-54
2023/01/10 06:54:32;;;;;;;37.28;5.43;;;5.90;99.90;;;;;;5058855;28;20085;-53
2023/01/10 06:56:59;;;;;;;35.00;6.00;;;5.90;99.90;;;;;;5062725;28;20053;-52
2023/01/10 06:59:26;;;;;;;30.55;5.22;;;5.80;99.90;;;;;;5064633;28;20124;-53
2023/01/10 07:01:54;;;;;;;33.10;4.82;;;5.70;99.90;;;;;;5041587;28;20084;-52
2023/01/10 07:04:21;;;;;;;35.17;5.15;;;5.70;99.90;;;;;;5062178;28;20083;-45
2023/01/10 07:06:47;;;;;;;41.85;4.60;;;5.70;99.90;;;;;;5059853;28;20520;-56
2023/01/10 07:09:14;;;;;;;33.38;5.00;;;5.70;99.90;;;;;;5045434;28;20076;-54
2023/01/10 07:11:41;;;;;;;32.63;5.45;;;5.70;99.90;;;;;;5062278;28;20049;-52
2023/01/10 07:14:08;;;;;;;36.60;6.05;;;5.70;99.90;;;;;;5043081;28;20076;-50
2023/01/10 07:16:35;;;;;;;34.38;5.05;;;5.70;99.90;;;;;;5036688;28;20048;-55
2023/01/10 07:19:03;;;;;;;34.88;5.78;;;5.70;99.90;;;;;;5047812;28;20130;-51
2023/01/10 07:21:30;;;;;;;41.13;6.10;;;5.70;99.90;;;;;;5045402;28;20048;-54
2023/01/10 07:23:57;;;;;;;31.17;5.72;;;5.70;99.90;;;;;;5057820;28;20127;-51
2023/01/10 07:26:24;;;;;;;37.13;5.70;;;5.70;99.90;;;;;;5042422;28;20109;-48
2023/01/10 07:28:50;;;;;;;35.10;5.40;;;5.70;99.90;;;;;;5049866;28;20075;-55
2023/01/10 07:31:17;;;;;;;44.30;6.13;;;5.70;99.90;;;;;;5044245;28;20053;-47
2023/01/10 07:33:44;;;;;;;40.67;6.05;;;5.70;99.90;;;;;;5044944;28;20268;-51
2023/01/10 07:36:12;;;;;;;31.45;6.03;;;5.70;99.90;;;;;;5043800;28;20553;-53
2023/01/10 07:38:39;;;;;;;33.67;6.35;;;5.70;99.90;;;;;;5062759;28;20090;-50
2023/01/10 07:41:06;;;;;;;35.17;6.55;;;5.80;99.90;;;;;;5060788;28;20148;-55
2023/01/10 07:43:33;;;;;;;36.90;7.88;;;5.70;99.90;;;;;;5060429;28;20048;-54
2023/01/10 07:46:00;;;;;;;32.60;6.38;;;5.70;99.90;;;;;;5059641;28;20056;-55
2023/01/10 07:48:27;;;;;;;36.45;6.50;;;5.70;99.90;;;;;;5045258;28;20131;-56
2023/01/10 07:50:55;;;;;;;31.33;5.10;;;5.80;99.90;;;;;;5060228;28;20048;-49
2023/01/10 07:53:24;;;;;;;30.40;5.22;;;5.80;99.90;;;;;;5043719;28;20115;-50
2023/01/10 07:55:50;;;;;;;37.55;5.93;;;5.70;99.90;;;;;;5045439;28;20705;-55
2023/01/10 07:58:17;;;;;;;36.03;5.95;;;5.80;99.90;;;;;;5044325;28;20044;-50
2023/01/10 08:00:44;;;;;;;37.60;6.03;;;5.70;99.90;;;;;;5062135;28;20094;-52
2023/01/10 08:03:11;;;;;;;35.38;5.45;;;5.80;99.90;;;;;;5045719;28;20097;-51
2023/01/10 08:05:38;;;;;;;35.55;5.72;;;5.80;99.90;;;;;;5044269;28;20194;-55
2023/01/10 08:08:05;;;;;;;36.70;6.22;;;5.80;99.90;;;;;;5043093;28;20056;-54
2023/01/10 08:10:34;;;;;;;29.23;5.60;;;5.80;99.90;;;;;;5058843;28;20048;-49
2023/01/10 08:13:01;;;;;;;35.05;5.45;;;5.80;99.90;;;;;;5043183;28;20127;-54
2023/01/10 08:15:28;;;;;;;32.85;5.43;;;5.80;99.90;;;;;;5043419;28;20098;-55
2023/01/10 08:17:54;;;;;;;33.75;6.43;;;5.70;99.90;;;;;;5062747;28;20094;-51
2023/01/10 08:20:21;;;;;;;42.95;6.45;;;5.80;99.90;;;;;;5045616;28;20136;-46
2023/01/10 08:22:48;;;;;;;49.50;5.85;;;5.90;99.90;;;;;;5044682;28;20098;-56
2023/01/10 08:25:15;;;;;;;38.95;6.65;;;5.90;99.90;;;;;;5045626;28;20569;-52
2023/01/10 08:27:43;;;;;;;42.15;5.75;;;5.90;99.90;;;;;;5062294;28;20455;-51
2023/01/10 08:30:11;;;;;;;37.13;5.40;;;5.90;99.90;;;;;;5061401;28;20143;-47
2023/01/10 08:32:38;;;;;;;35.60;5.75;;;5.90;99.90;;;;;;5041552;28;20075;-55
2023/01/10 08:35:06;;;;;;;36.75;5.78;;;6.00;99.90;;;;;;5040761;28;20055;-56
2023/01/10 08:37:34;;;;;;;44.00;6.38;;;5.90;99.90;;;;;;5040713;28;20072;-55
2023/01/10 08:40:00;;;;;;;34.90;5.10;;;5.90;99.90;;;;;;5042193;28;20053;-53
2023/01/10 08:42:27;;;;;;;34.33;6.25;;;5.90;99.90;;;;;;5041563;28;20137;-55
2023/01/10 08:44:55;;;;;;;34.60;5.45;;;5.90;99.90;;;;;;5041442;28;20550;-55
2023/01/10 08:47:22;;;;;;;32.00;5.80;;;5.90;99.90;;;;;;5041004;28;20134;-55
2023/01/10 08:49:49;;;;;;;31.55;6.00;;;5.90;99.90;;;;;;5045374;28;20488;-53
2023/01/10 08:52:16;;;;;;;39.15;5.60;;;5.90;99.90;;;;;;5046423;28;20504;-54
2023/01/10 08:54:43;;;;;;;38.40;6.00;;;5.90;99.90;;;;;;5046337;28;20049;-53
2023/01/10 08:57:09;;;;;;;36.10;5.38;;;5.90;99.90;;;;;;5045033;28;20789;-47
2023/01/10 08:59:36;;;;;;;30.50;4.70;;;5.90;99.90;;;;;;5044815;28;20057;-55
2023/01/10 09:02:07;;;;;;;32.38;5.57;;;5.90;99.90;;;;;;5045791;28;20123;-55
2023/01/10 09:04:34;;;;;;;37.08;5.55;;;5.90;99.90;;;;;;5045626;28;20106;-56
2023/01/10 09:07:00;;;;;;;43.55;6.82;;;5.90;99.90;;;;;;5044880;28;20404;-52
2023/01/10 09:09:27;;;;;;;36.95;5.30;;;5.90;99.90;;;;;;5045997;28;20099;-49
2023/01/10 09:11:54;;;;;;;43.10;6.05;;;6.00;99.90;;;;;;5045163;28;20095;-50
2023/01/10 09:14:21;;;;;;;51.38;5.43;;;6.00;99.90;;;;;;5044815;28;20688;-53
2023/01/10 09:16:50;;;;;;;47.28;6.10;;;6.00;99.90;;;;;;5044324;28;20135;-51
2023/01/10 09:19:18;;;;;;;41.42;5.57;;;6.10;99.90;;;;;;5055505;28;20516;-49
2023/01/10 09:21:45;;;;;;;42.13;6.38;;;6.10;99.90;;;;;;5040255;28;20565;-53
2023/01/10 09:24:12;;;;;;;40.88;6.05;;;6.10;99.90;;;;;;5043317;28;20605;-47
2023/01/10 09:26:39;;;;;;;34.85;5.72;;;6.20;99.90;;;;;;5037794;28;20053;-53
2023/01/10 09:29:05;;;;;;;41.47;5.90;;;6.20;99.90;;;;;;5041857;28;20057;-53
2023/01/10 09:31:32;;;;;;;37.17;5.45;;;6.20;99.90;;;;;;5042050;28;20068;-49
2023/01/10 09:33:59;;;;;;;40.97;6.43;;;6.30;99.90;;;;;;5045656;28;20060;-50
2023/01/10 09:36:27;;;;;;;34.28;5.25;;;6.30;99.90;;;;;;5041277;28;20073;-51
2023/01/10 09:38:54;;;;;;;33.70;5.50;;;6.40;99.90;;;;;;5042670;28;20067;-52
2023/01/10 09:41:34;;;;;;;41.58;6.65;;;6.50;99.90;;;;;;5040776;28;20468;-50
2023/01/10 09:44:05;;;;;;;50.08;6.18;;;6.50;99.90;;;;;;5041605;28;20080;-52
2023/01/10 09:46:37;;;;;;;38.15;5.72;;;6.60;99.90;;;;;;5042320;28;20053;-49
2023/01/10 09:49:07;;;;;;;35.15;5.53;;;6.60;99.90;;;;;;5044797;28;20048;-52
2023/01/10 09:51:37;;;;;;;35.83;6.40;;;6.70;99.90;;;;;;5045878;28;20492;-50
2023/01/10 09:54:06;;;;;;;37.58;6.30;;;6.70;99.90;;;;;;5043232;28;20072;-56
2023/01/10 09:56:33;;;;;;;30.65;5.38;;;6.80;99.90;;;;;;5044433;28;20163;-55
2023/01/10 09:59:01;;;;;;;36.78;5.60;;;6.80;99.90;;;;;;5041281;28;20052;-50
2023/01/10 10:01:30;;;;;;;40.70;6.18;;;6.80;99.90;;;;;;5043753;28;20041;-44
2023/01/10 10:04:00;;;;;;;35.13;5.32;;;6.90;99.90;;;;;;5043096;28;20536;-55
2023/01/10 10:06:27;;;;;;;30.38;6.40;;;6.90;99.90;;;;;;5039283;28;20053;-49
2023/01/10 10:08:55;;;;;;;31.85;5.38;;;6.90;99.90;;;;;;5044579;28;20083;-46
2023/01/10 10:11:40;;;;;;;34.75;5.43;;;6.90;99.90;;;;;;5044187;28;20135;-50
2023/01/10 10:14:11;;;;;;;39.03;6.70;;;7.00;99.90;;;;;;5039945;28;20341;-55
2023/01/10 10:16:44;;;;;;;40.92;6.28;;;6.90;99.90;;;;;;5039858;28;20135;-50
2023/01/10 10:19:14;;;;;;;31.38;6.82;;;7.00;99.90;;;;;;5042980;28;20056;-43
2023/01/10 10:21:45;;;;;;;36.05;6.25;;;7.00;99.90;;;;;;5042519;28;20486;-49
2023/01/10 10:24:33;;;;;;;50.33;9.10;;;7.00;99.90;;;;;;5045260;28;20135;-46
2023/01/10 10:27:07;;;;;;;35.05;8.07;;;7.00;99.90;;;;;;5041594;28;20053;-48
2023/01/10 10:30:04;;;;;;;42.83;8.70;;;7.00;99.90;;;;;;5043139;28;20495;-48
2023/01/10 10:32:44;;;;;;;40.30;9.02;;;7.00;99.90;;;;;;5060003;28;20100;-53
2023/01/10 10:35:13;;;;;;;44.53;8.38;;;7.10;99.90;;;;;;5064975;28;20048;-52
2023/01/10 10:37:41;;;;;;;42.22;10.05;;;7.10;99.90;;;;;;5045143;28;20045;-54
2023/01/10 10:40:16;;;;;;;44.42;11.05;;;7.00;99.90;;;;;;5063493;28;20058;-53
2023/01/10 10:42:45;;;;;;;47.28;9.88;;;7.00;99.90;;;;;;5064098;28;20326;-45
2023/01/10 10:45:17;;;;;;;44.03;10.98;;;7.00;99.90;;;;;;5043525;28;20048;-52
2023/01/10 10:47:48;;;;;;;42.30;9.95;;;7.10;99.90;;;;;;5063290;28;20400;-54
2023/01/10 10:50:19;;;;;;;35.67;10.18;;;7.10;99.90;;;;;;5044342;28;20128;-55
2023/01/10 10:52:45;;;;;;;41.03;10.63;;;7.00;99.90;;;;;;5061191;28;20045;-53
2023/01/10 10:55:15;;;;;;;40.22;10.18;;;7.10;99.90;;;;;;5061814;28;20131;-54
2023/01/10 10:57:42;;;;;;;55.05;11.43;;;7.00;99.90;;;;;;5060876;28;20114;-55
2023/01/10 11:00:14;;;;;;;49.53;11.68;;;7.00;99.90;;;;;;5044180;28;20127;-52
2023/01/10 11:02:43;;;;;;;46.65;10.80;;;7.10;99.90;;;;;;5044655;28;20139;-50
2023/01/10 11:05:16;;;;;;;46.13;10.73;;;7.10;99.90;;;;;;5044633;28;20087;-48
2023/01/10 11:07:42;;;;;;;46.15;10.90;;;7.10;99.90;;;;;;5061191;28;20080;-51
2023/01/10 11:12:56;;;;;;;37.58;11.52;;;7.10;99.90;;;;;;5058033;28;20049;-49
2023/01/10 11:15:41;;;;;;;44.20;9.98;;;7.10;99.90;;;;;;5061162;28;20036;-48
2023/01/10 11:18:11;;;;;;;47.13;11.02;;;7.20;99.90;;;;;;5063342;28;20573;-49
2023/01/10 11:20:39;;;;;;;39.58;10.15;;;7.10;99.90;;;;;;5062272;28;20052;-49
2023/01/10 11:23:06;;;;;;;37.80;9.32;;;7.10;99.90;;;;;;5062916;28;20107;-49
2023/01/10 11:25:32;;;;;;;48.42;10.35;;;7.10;99.90;;;;;;5044241;28;20052;-51
2023/01/10 11:28:01;;;;;;;43.60;10.23;;;7.10;99.90;;;;;;5043392;28;20084;-54
2023/01/10 11:30:28;;;;;;;39.90;9.52;;;7.10;99.90;;;;;;5061200;28;20545;-48
2023/01/10 11:32:56;;;;;;;41.90;9.57;;;7.10;99.90;;;;;;5061691;28;20455;-50
2023/01/10 11:35:25;;;;;;;33.03;9.07;;;7.20;99.90;;;;;;5044154;28;20052;-51
2023/01/10 11:38:02;;;;;;;43.03;9.95;;;7.10;99.90;;;;;;5043195;28;20076;-47
2023/01/10 11:40:29;;;;;;;42.72;8.65;;;7.10;99.90;;;;;;5060507;28;20664;-54
2023/01/10 11:42:57;;;;;;;34.05;7.70;;;7.10;99.90;;;;;;5059461;28;20503;-51
2023/01/10 11:45:27;;;;;;;40.72;8.95;;;7.10;99.90;;;;;;5047801;28;20143;-54
2023/01/10 11:47:56;;;;;;;38.13;8.27;;;7.10;99.90;;;;;;5060765;28;20052;-54
2023/01/10 11:50:24;;;;;;;47.15;8.55;;;7.10;99.90;;;;;;5059399;28;20140;-45
2023/01/10 11:52:51;;;;;;;31.27;7.55;;;7.10;99.90;;;;;;5060567;28;20052;-54
2023/01/10 11:55:19;;;;;;;39.25;8.18;;;7.10;99.90;;;;;;5059087;28;20128;-51
2023/01/10 11:57:46;;;;;;;36.00;7.55;;;7.10;99.90;;;;;;5059569;28;21510;-53
2023/01/10 12:00:14;;;;;;;43.42;8.05;;;7.00;99.90;;;;;;5060805;28;20128;-50
2023/01/10 12:02:43;;;;;;;40.85;9.23;;;7.10;99.90;;;;;;5059128;28;20081;-51
2023/01/10 12:05:13;;;;;;;37.90;8.45;;;7.10;99.90;;;;;;5061541;28;20135;-54
2023/01/10 12:07:55;;;;;;;36.00;7.32;;;7.10;99.90;;;;;;5060875;28;20076;-55
2023/01/10 12:10:22;;;;;;;40.63;8.48;;;7.10;99.90;;;;;;5060182;28;20140;-44
2023/01/10 12:12:54;;;;;;;38.85;9.75;;;7.10;99.90;;;;;;5061176;28;20083;-46
2023/01/10 12:15:21;;;;;;;;;;;7.10;99.90;;;;;;5060519;28;20124;-47
2023/01/10 12:17:49;;;;;;;40.63;9.15;;;7.10;99.90;;;;;;5060321;28;19974;-49
2023/01/10 12:20:16;;;;;;;34.90;6.70;;;7.10;99.90;;;;;;5061538;28;20113;-54
2023/01/10 12:22:45;;;;;;;37.58;8.20;;;7.10;99.90;;;;;;5062146;28;20394;-51
2023/01/10 12:25:17;;;;;;;44.50;7.20;;;7.10;99.90;;;;;;5047790;28;20128;-45
2023/01/10 12:27:47;;;;;;;33.15;6.90;;;7.10;99.90;;;;;;5048663;28;20083;-49
2023/01/10 12:30:16;;;;;;;42.25;7.55;;;7.10;99.90;;;;;;5065361;28;20476;-53
2023/01/10 12:32:45;;;;;;;35.38;7.40;;;7.10;99.90;;;;;;5065249;28;20821;-43
2023/01/10 12:35:15;;;;;;;36.60;7.43;;;7.10;99.90;;;;;;5064871;28;20088;-47
2023/01/10 12:37:45;;;;;;;30.20;6.28;;;7.10;99.90;;;;;;5064187;28;20044;-46
2023/01/10 12:40:14;;;;;;;31.48;7.47;;;7.00;99.90;;;;;;5065542;28;20088;-42
2023/01/10 12:45:37;;;;;;;37.30;7.55;;;7.00;99.90;;;;;;5064414;28;20524;-52
2023/01/10 12:48:06;;;;;;;31.40;6.38;;;7.00;99.90;;;;;;5065243;28;20139;-50
2023/01/10 12:50:35;;;;;;;35.92;7.07;;;7.00;99.90;;;;;;5047576;28;20544;-49
2023/01/10 12:53:05;;;;;;;39.38;8.38;;;7.00;99.90;;;;;;5065323;28;20049;-54
2023/01/10 12:55:34;;;;;;;36.47;9.25;;;7.00;99.90;;;;;;5064613;28;20136;-53
2023/01/10 12:58:02;;;;;;;37.08;7.90;;;7.00;99.90;;;;;;5064531;28;20060;-50
2023/01/10 13:00:31;;;;;;;40.17;8.48;;;7.00;99.90;;;;;;5064849;28;20501;-45
2023/01/10 13:02:59;;;;;;;32.45;7.00;;;7.00;99.90;;;;;;5047907;28;20146;-50
2023/01/10 13:05:27;;;;;;;43.55;7.32;;;6.90;99.90;;;;;;5063877;28;20129;-52
2023/01/10 13:07:59;;;;;;;43.00;7.70;;;6.90;99.90;;;;;;5047339;28;20072;-51
2023/01/10 13:10:26;;;;;;;37.90;7.50;;;6.90;99.90;;;;;;5064817;28;20445;-51